Time;durP1;ratioP1;P1;durP2;ratioP2;P2;SDS_P1;SDS_P2;PMS_P1;PMS_P2;Temp;Humidity;BMP_temperature;BMP_pressure;BME280_temperature;BME280_humidity;BME280_pressure;Samples;Min_cycle;Max_cycle;Signal;HPM_P1;HPM_P2
2022/04/25 00:01:42;;;;;;;9.58;7.72;;;;;;;10.27;67.36;99963.91;1690711;83;21443;-76
2022/04/25 00:04:09;;;;;;;8.90;7.72;;;;;;;10.29;67.19;99956.41;1670996;85;21133;-76
2022/04/25 00:06:38;;;;;;;8.60;7.30;;;;;;;10.30;67.03;99947.34;1670697;85;21026;-76
2022/04/25 00:09:07;;;;;;;8.98;7.20;;;;;;;10.31;66.90;99947.61;1680766;83;22236;-75
2022/04/25 00:11:37;;;;;;;9.68;7.25;;;;;;;10.30;66.78;99943.34;1722137;83;20960;-76
2022/04/25 00:14:07;;;;;;;8.60;7.10;;;;;;;10.29;66.69;99944.39;1651036;87;21021;-75
2022/04/25 00:16:36;;;;;;;7.85;6.80;;;;;;;10.28;66.66;99950.27;1665750;86;21011;-77
2022/04/25 00:19:05;;;;;;;8.48;6.87;;;;;;;10.29;66.62;99953.20;1657514;84;21071;-76
2022/04/25 00:21:33;;;;;;;8.98;6.87;;;;;;;10.31;66.60;99950.27;1678742;83;21034;-76
2022/04/25 00:24:02;;;;;;;7.60;6.80;;;;;;;10.31;66.51;99953.73;1681617;83;21024;-76
2022/04/25 00:26:30;;;;;;;9.15;7.15;;;;;;;10.32;66.42;99951.86;1683161;84;21079;-76
2022/04/25 00:28:59;;;;;;;8.75;6.85;;;;;;;10.30;66.30;99946.81;1728112;82;21625;-76
2022/04/25 00:31:26;;;;;;;8.70;6.95;;;;;;;10.30;66.18;99950.81;1692907;84;21062;-75
2022/04/25 00:33:55;;;;;;;8.35;7.25;;;;;;;10.31;66.08;99956.95;1694618;83;21063;-76
2022/04/25 00:36:23;;;;;;;10.43;7.22;;;;;;;10.31;66.03;99962.28;1679900;84;21226;-76
2022/04/25 00:38:52;;;;;;;8.08;7.12;;;;;;;10.29;66.00;99958.53;1682656;84;21535;-76
2022/04/25 00:41:20;;;;;;;7.97;7.00;;;;;;;10.29;65.93;99951.06;1664703;84;21094;-77
2022/04/25 00:43:47;;;;;;;9.35;7.40;;;;;;;10.27;65.89;99950.02;1690544;83;21130;-77
2022/04/25 00:46:21;;;;;;;8.65;7.47;;;;;;;10.28;65.81;99946.27;1691898;83;21188;-75
2022/04/25 00:48:49;;;;;;;8.00;7.03;;;;;;;10.27;65.75;99943.88;1686475;83;20996;-76
2022/04/25 00:51:17;;;;;;;8.68;7.15;;;;;;;10.26;65.72;99939.59;1690810;83;21302;-77
2022/04/25 00:53:47;;;;;;;9.03;7.87;;;;;;;10.24;65.70;99935.05;1686263;83;21073;-76
2022/04/25 00:56:16;;;;;;;7.97;6.92;;;;;;;10.23;65.62;99936.09;1684783;83;21585;-76
2022/04/25 00:58:45;;;;;;;8.10;7.00;;;;;;;10.24;65.57;99931.05;1662455;84;21297;-77
2022/04/25 01:01:13;;;;;;;7.90;7.03;;;;;;;10.24;65.50;99921.16;1689836;82;20849;-77
2022/04/25 01:03:42;;;;;;;9.43;7.25;;;;;;;10.22;65.35;99916.62;1685944;83;21129;-75
2022/04/25 01:06:11;;;;;;;8.45;7.42;;;;;;;10.20;65.23;99912.61;1663442;85;21066;-77
2022/04/25 01:08:39;;;;;;;8.50;7.10;;;;;;;10.18;65.14;99918.23;1664026;84;20995;-77
2022/04/25 01:11:07;;;;;;;8.75;7.20;;;;;;;10.17;65.02;99918.48;1698574;84;21344;-77
2022/04/25 01:13:37;;;;;;;9.85;7.92;;;;;;;10.16;64.96;99921.70;1655101;84;21023;-77
2022/04/25 01:16:06;;;;;;;9.20;7.50;;;;;;;10.16;64.91;99924.36;1664611;84;21538;-77
2022/04/25 01:18:34;;;;;;;9.00;7.67;;;;;;;10.15;64.91;99916.10;1660120;84;21693;-77
2022/04/25 01:21:03;;;;;;;8.73;7.50;;;;;;;10.17;64.94;99917.16;1658811;84;21688;-77
2022/04/25 01:29:03;;;;;;;9.00;7.55;;;;;;;10.17;64.86;99913.15;1693893;83;21003;-76
2022/04/25 01:31:32;;;;;;;8.45;7.25;;;;;;;10.16;64.81;99906.22;1684324;83;21219;-76
2022/04/25 01:34:02;;;;;;;8.58;7.67;;;;;;;10.15;64.79;99903.30;1693444;83;21046;-76
2022/04/25 01:36:30;;;;;;;9.45;8.05;;;;;;;10.13;64.76;99897.42;1694521;84;21238;-76
2022/04/25 01:38:58;;;;;;;9.88;7.83;;;;;;;10.09;64.75;99890.48;1689873;83;21035;-76
2022/04/25 01:41:26;;;;;;;9.40;8.03;;;;;;;10.06;64.77;99892.36;1680302;83;21080;-76
2022/04/25 01:43:53;;;;;;;9.05;7.83;;;;;;;10.02;64.77;99888.09;1679111;83;21658;-75
2022/04/25 01:46:21;;;;;;;9.13;7.90;;;;;;;10.02;64.73;99885.43;1679620;83;21094;-76
2022/04/25 01:48:48;;;;;;;9.43;7.78;;;;;;;10.00;64.71;99879.59;1680177;83;21417;-76
2022/04/25 01:51:15;;;;;;;9.38;8.00;;;;;;;10.02;64.69;99875.30;1680826;83;21056;-76
2022/04/25 01:53:44;;;;;;;9.60;7.97;;;;;;;10.03;64.66;99876.89;1670764;85;21188;-76
2022/04/25 01:56:11;;;;;;;9.98;8.00;;;;;;;10.02;64.63;99873.42;1683603;83;21726;-76
2022/04/25 01:58:38;;;;;;;8.85;7.60;;;;;;;10.04;64.61;99874.51;1678764;83;21086;-77
2022/04/25 02:01:07;;;;;;;9.65;7.87;;;;;;;10.00;64.63;99876.91;1681706;83;21202;-76
2022/04/25 02:03:35;;;;;;;9.08;7.90;;;;;;;10.02;64.60;99877.97;1676925;83;21027;-76
2022/04/25 02:06:03;;;;;;;9.70;8.08;;;;;;;10.02;64.55;99884.64;1679881;84;21102;-76
2022/04/25 02:08:30;;;;;;;8.88;7.72;;;;;;;10.03;64.47;99881.69;1666595;84;21013;-77
2022/04/25 02:13:45;;;;;;;9.40;7.90;;;;;;;10.05;64.31;99883.56;1654042;84;21380;-77
2022/04/25 02:16:12;;;;;;;8.98;7.67;;;;;;;10.07;64.18;99877.97;1683314;83;20968;-76
2022/04/25 02:18:41;;;;;;;9.38;8.13;;;;;;;10.06;64.13;99874.48;1657770;85;21086;-76
2022/04/25 02:21:10;;;;;;;9.30;7.83;;;;;;;10.05;64.08;99872.89;1682738;83;21038;-77
2022/04/25 02:23:38;;;;;;;8.75;7.85;;;;;;;10.05;64.10;99883.56;1679709;83;21110;-76
2022/04/25 02:26:06;;;;;;;8.90;8.00;;;;;;;10.05;64.11;99880.09;1685349;83;21115;-76
2022/04/25 02:28:35;;;;;;;10.10;8.15;;;;;;;10.04;64.13;99879.30;1678765;83;21042;-77
2022/04/25 02:31:04;;;;;;;9.18;8.18;;;;;;;10.05;64.16;99878.23;1679609;83;21046;-76
2022/04/25 02:33:34;;;;;;;8.55;7.62;;;;;;;10.07;64.14;99880.10;1678769;83;21023;-77
2022/04/25 02:36:06;;;;;;;9.25;8.10;;;;;;;10.09;64.11;99882.48;1680730;83;21078;-76
2022/04/25 02:38:34;;;;;;;9.90;8.28;;;;;;;10.12;64.08;99881.16;1699313;84;21145;-75
2022/04/25 02:41:06;;;;;;;10.28;8.53;;;;;;;10.12;64.05;99877.15;1699020;84;21581;-75
2022/04/25 02:43:40;;;;;;;10.58;8.40;;;;;;;10.14;63.98;99874.48;1698968;83;21015;-75
2022/04/25 02:46:12;;;;;;;9.65;8.20;;;;;;;10.15;63.92;99880.08;1685229;83;22375;-75
2022/04/25 02:48:43;;;;;;;10.82;7.75;;;;;;;10.17;63.84;99877.13;1679259;83;21106;-75
2022/04/25 02:51:12;;;;;;;9.05;7.97;;;;;;;10.18;63.77;99874.20;1679347;83;21114;-77
2022/04/25 02:53:39;;;;;;;9.10;7.65;;;;;;;10.18;63.77;99871.53;1679011;83;21169;-76
2022/04/25 02:56:08;;;;;;;8.40;7.53;;;;;;;10.20;63.74;99876.58;1681985;83;21674;-75
2022/04/25 02:58:41;;;;;;;8.85;7.67;;;;;;;10.20;63.71;99870.73;1680621;84;21514;-76
2022/04/25 03:01:08;;;;;;;8.60;7.70;;;;;;;10.21;63.71;99870.20;1688957;83;21039;-77
2022/04/25 03:03:37;;;;;;;8.60;7.60;;;;;;;10.23;63.68;99866.70;1674399;83;21179;-76
2022/04/25 03:06:08;;;;;;;8.45;7.55;;;;;;;10.23;63.62;99872.05;1691023;83;21064;-77
2022/04/25 03:08:37;;;;;;;9.25;7.95;;;;;;;10.23;63.54;99867.53;1671179;85;21157;-77
2022/04/25 03:11:08;;;;;;;9.18;7.80;;;;;;;10.25;63.49;99870.70;1670998;85;21042;-77
2022/04/25 03:13:38;;;;;;;9.43;7.40;;;;;;;10.26;63.42;99875.53;1680031;83;21054;-77
2022/04/25 03:16:06;;;;;;;9.63;7.60;;;;;;;10.27;63.39;99862.48;1682160;83;22239;-77
2022/04/25 03:18:33;;;;;;;9.18;7.95;;;;;;;10.30;63.39;99865.94;1677933;83;21058;-76
2022/04/25 03:21:01;;;;;;;8.28;7.30;;;;;;;10.31;63.38;99858.19;1682209;83;21574;-77
2022/04/25 03:23:30;;;;;;;8.38;7.42;;;;;;;10.36;63.37;99857.36;1682142;83;21107;-75
2022/04/25 03:25:57;;;;;;;8.63;7.25;;;;;;;10.38;63.36;99852.02;1691628;83;21090;-75
2022/04/25 03:28:24;;;;;;;8.68;7.40;;;;;;;10.41;63.34;99843.46;1683860;84;21259;-76
2022/04/25 03:30:52;;;;;;;8.15;7.22;;;;;;;10.41;63.38;99843.46;1672412;83;21027;-76
2022/04/25 03:33:21;;;;;;;8.10;7.12;;;;;;;10.43;63.42;99846.67;1682001;83;21455;-77
2022/04/25 03:35:50;;;;;;;8.10;6.80;;;;;;;10.48;63.41;99856.52;1680064;83;21114;-77
2022/04/25 03:38:18;;;;;;;8.98;7.33;;;;;;;10.53;63.40;99851.17;1679814;83;21087;-77
2022/04/25 03:40:45;;;;;;;8.78;7.15;;;;;;;10.59;63.45;99846.59;1695637;83;21198;-76
2022/04/25 03:43:15;;;;;;;7.67;6.75;;;;;;;10.66;63.46;99843.91;1685819;83;20977;-76
2022/04/25 03:45:43;;;;;;;8.38;7.45;;;;;;;10.73;63.50;99839.59;1684428;83;21634;-76
2022/04/25 03:48:11;;;;;;;7.85;6.58;;;;;;;10.76;63.60;99835.83;1684479;83;21360;-76
2022/04/25 03:50:38;;;;;;;7.75;6.95;;;;;;;10.81;63.66;99825.64;1688120;83;21056;-77
2022/04/25 03:53:11;;;;;;;8.98;7.22;;;;;;;10.83;63.79;99824.05;1691934;83;21239;-77
2022/04/25 03:58:25;;;;;;;8.48;7.30;;;;;;;10.93;64.06;99815.42;1670765;85;21064;-76
2022/04/25 04:00:56;;;;;;;7.90;6.75;;;;;;;11.03;64.06;99815.90;1670292;85;21623;-77
2022/04/25 04:03:24;;;;;;;6.95;6.22;;;;;;;11.12;64.01;99816.08;1677419;83;21159;-75
2022/04/25 04:05:54;;;;;;;7.67;6.65;;;;;;;11.20;64.00;99808.83;1692535;83;21262;-75
2022/04/25 04:08:23;;;;;;;7.67;6.45;;;;;;;11.27;63.89;99803.95;1694062;83;21036;-77
2022/04/25 04:10:50;;;;;;;8.53;7.03;;;;;;;11.36;63.76;99808.97;1686785;83;21166;-76
2022/04/25 04:13:17;;;;;;;8.55;6.62;;;;;;;11.45;63.59;99793.09;1687902;83;21058;-77
2022/04/25 04:15:45;;;;;;;7.33;6.03;;;;;;;11.55;63.37;99783.67;1682949;83;21090;-77
2022/04/25 04:18:12;;;;;;;8.00;6.35;;;;;;;11.66;63.03;99785.16;1682551;83;21222;-76
2022/04/25 04:20:40;;;;;;;7.42;6.42;;;;;;;11.77;62.74;99775.14;1681064;83;21042;-74
2022/04/25 04:23:07;;;;;;;8.20;6.53;;;;;;;11.87;62.24;99772.92;1681456;83;21025;-75
2022/04/25 04:25:36;;;;;;;7.80;6.62;;;;;;;12.00;61.92;99772.79;1683007;83;21554;-77
2022/04/25 04:28:06;;;;;;;7.03;5.83;;;;;;;12.13;61.42;99769.42;1678791;83;21050;-75
2022/04/25 04:30:34;;;;;;;7.60;6.30;;;;;;;12.27;61.09;99770.30;1687926;83;21255;-75
2022/04/25 04:33:01;;;;;;;6.85;5.95;;;;;;;12.43;60.58;99771.70;1682493;82;21064;-73
2022/04/25 04:38:15;;;;;;;7.90;5.78;;;;;;;12.75;59.84;99770.20;1671148;85;21175;-75
2022/04/25 04:40:42;;;;;;;6.08;5.00;;;;;;;12.92;59.23;99764.32;1676380;84;21595;-79
2022/04/25 04:43:10;;;;;;;6.30;5.50;;;;;;;13.07;58.75;99768.66;1681768;83;21618;-75
2022/04/25 04:45:37;;;;;;;7.10;6.03;;;;;;;13.20;58.09;99763.09;1683107;83;21113;-76
2022/04/25 04:48:05;;;;;;;6.95;5.83;;;;;;;13.32;57.90;99757.52;1686555;83;21339;-75
2022/04/25 04:50:34;;;;;;;6.08;5.03;;;;;;;13.46;57.66;99760.78;1690333;83;21081;-76
2022/04/25 04:53:02;;;;;;;7.10;5.20;;;;;;;13.58;57.43;99761.11;1686505;83;21640;-76
2022/04/25 04:55:33;;;;;;;8.70;5.57;;;;;;;13.71;57.14;99767.59;1679204;83;21990;-77
2022/04/25 04:58:00;;;;;;;6.60;5.10;;;;;;;13.84;57.05;99762.77;1671737;83;21881;-77
2022/04/25 05:00:27;;;;;;;5.77;4.63;;;;;;;13.98;56.94;99756.06;1684796;83;21423;-77
2022/04/25 05:02:56;;;;;;;6.00;4.93;;;;;;;14.12;56.87;99754.18;1677160;83;21866;-77
2022/04/25 05:05:23;;;;;;;5.70;4.63;;;;;;;14.28;56.69;99760.83;1689927;83;21202;-77
2022/04/25 05:07:54;;;;;;;6.20;5.03;;;;;;;14.43;56.34;99767.75;1692160;83;21398;-77
2022/04/25 05:10:25;;;;;;;5.43;4.80;;;;;;;14.58;56.06;99772.05;1653646;84;21222;-77
2022/04/25 05:12:55;;;;;;;5.77;4.87;;;;;;;14.73;55.79;99769.00;1664362;84;21360;-77
2022/04/25 05:15:23;;;;;;;5.50;4.47;;;;;;;14.88;55.62;99763.83;1659094;84;21807;-76
2022/04/25 05:17:55;;;;;;;6.00;4.80;;;;;;;15.04;55.63;99760.23;1693907;83;21400;-76
2022/04/25 05:20:23;;;;;;;;;;;;;;;15.19;55.30;99761.75;1687845;83;21652;-77
2022/04/25 05:22:52;;;;;;;5.27;4.47;;;;;;;15.33;55.04;99767.05;1682249;84;20520;-77
2022/04/25 05:25:24;;;;;;;6.10;4.40;;;;;;;15.46;54.81;99771.03;1682128;83;21367;-76
2022/04/25 05:27:55;;;;;;;5.40;4.20;;;;;;;15.60;54.31;99769.59;1682954;83;21402;-78
2022/04/25 05:30:25;;;;;;;5.50;4.50;;;;;;;15.76;54.00;99768.66;1682265;83;21162;-78
2022/04/25 05:32:58;;;;;;;6.37;4.33;;;;;;;15.91;53.62;99766.09;1686394;83;21357;-78
2022/04/25 05:35:29;;;;;;;6.47;4.70;;;;;;;16.08;53.30;99766.70;1682852;83;21466;-77
2022/04/25 05:37:58;;;;;;;6.43;4.10;;;;;;;16.22;52.70;99754.45;1677366;83;22032;-77
2022/04/25 05:40:26;;;;;;;5.67;4.60;;;;;;;16.39;52.20;99758.55;1682299;83;22088;-76
2022/04/25 05:42:55;;;;;;;7.77;5.03;;;;;;;16.64;51.91;99756.96;1687506;83;21460;-75
2022/04/25 05:45:25;;;;;;;6.27;5.23;;;;;;;16.64;51.91;99756.96;1682684;83;21527;-75
2022/04/25 05:47:56;;;;;;;8.00;6.63;;;;;;;16.87;51.01;99748.19;1682348;83;21624;-76
2022/04/25 05:53:13;;;;;;;7.43;5.70;;;;;;;16.97;50.40;99747.06;1679370;83;21613;-77
2022/04/25 05:55:44;;;;;;;8.03;5.97;;;;;;;17.13;49.73;99747.37;1679945;83;21779;-76
2022/04/25 05:58:13;;;;;;;6.78;5.22;;;;;;;17.13;49.73;99747.37;1685470;83;27548;-76
2022/04/25 06:00:40;;;;;;;8.20;5.20;;;;;;;17.21;49.49;99742.50;1679715;83;21088;-76
2022/04/25 06:03:08;;;;;;;7.50;6.20;;;;;;;17.28;49.71;99747.66;1681554;83;21788;-75
2022/04/25 06:05:35;;;;;;;6.00;4.87;;;;;;;17.38;49.76;99742.48;1685354;83;21730;-75
2022/04/25 06:08:03;;;;;;;6.13;5.07;;;;;;;17.48;49.82;99729.97;1691322;83;21806;-75
2022/04/25 06:10:30;;;;;;;6.47;4.63;;;;;;;17.59;49.80;99737.94;1697331;83;21742;-74
2022/04/25 06:12:59;;;;;;;5.87;4.80;;;;;;;17.75;49.76;99732.01;1684470;83;22244;-75
2022/04/25 06:15:26;;;;;;;5.97;4.67;;;;;;;17.91;49.54;99727.67;1679120;83;21874;-76
2022/04/25 06:17:55;;;;;;;8.10;4.80;;;;;;;18.22;49.10;99708.96;1682880;83;21764;-76
2022/04/25 06:20:23;;;;;;;6.43;4.63;;;;;;;18.22;49.10;99708.96;1684905;84;21617;-76
2022/04/25 06:22:58;;;;;;;7.33;4.90;;;;;;;18.37;49.08;99699.48;1680730;83;20979;-77
2022/04/25 06:25:26;;;;;;;6.23;4.57;;;;;;;18.47;49.09;99702.58;1685521;83;21139;-77
2022/04/25 06:27:54;;;;;;;6.87;5.13;;;;;;;18.62;49.06;99698.46;1678599;83;20999;-75
2022/04/25 06:30:28;;;;;;;8.47;6.10;;;;;;;18.77;49.03;99694.40;1682558;83;21475;-76
2022/04/25 06:32:59;;;;;;;7.60;5.70;;;;;;;18.94;49.00;99694.22;1689411;83;21210;-79
2022/04/25 06:35:28;;;;;;;8.60;6.10;;;;;;;19.10;49.17;99688.19;1698692;83;21244;-78
2022/04/25 06:37:55;;;;;;;9.37;6.30;;;;;;;19.26;48.76;99693.18;1696058;83;21023;-80
2022/04/25 06:40:23;;;;;;;12.37;6.70;;;;;;;19.34;48.59;99688.22;1690822;84;20956;-78
2022/04/25 06:42:53;;;;;;;8.93;6.10;;;;;;;19.42;48.76;99684.62;1705982;83;21027;-78
2022/04/25 06:45:22;;;;;;;8.80;6.23;;;;;;;19.51;48.82;99685.86;1693495;83;21078;-78
2022/04/25 06:47:50;;;;;;;10.83;6.50;;;;;;;19.61;48.89;99681.91;1699217;84;21094;-78
2022/04/25 06:50:17;;;;;;;10.20;6.23;;;;;;;19.72;48.86;99683.09;1692811;83;21059;-75
2022/04/25 06:52:45;;;;;;;8.60;6.30;;;;;;;19.85;48.83;99685.23;1689201;83;21059;-77
2022/04/25 06:55:15;;;;;;;8.37;5.67;;;;;;;20.00;48.51;99683.73;1664304;84;21967;-80
2022/04/25 06:57:42;;;;;;;8.50;6.60;;;;;;;20.11;48.15;99679.44;1667739;84;21097;-78
2022/04/25 07:00:11;;;;;;;8.23;5.57;;;;;;;20.22;48.15;99670.25;1686468;83;21647;-79
2022/04/25 07:02:41;;;;;;;9.20;5.23;;;;;;;20.30;47.79;99674.19;1682939;83;21000;-78
2022/04/25 07:05:11;;;;;;;7.07;5.30;;;;;;;20.34;47.52;99669.66;1657811;84;21040;-80
2022/04/25 07:07:40;;;;;;;8.63;5.37;;;;;;;20.33;47.34;99665.34;1689568;83;21108;-76
2022/04/25 07:10:07;;;;;;;7.17;5.23;;;;;;;20.31;47.21;99664.91;1664822;84;21106;-78
2022/04/25 07:12:36;;;;;;;8.60;5.67;;;;;;;20.28;47.16;99664.24;1659580;84;21102;-79
2022/04/25 07:15:05;;;;;;;6.33;4.93;;;;;;;20.28;47.39;99671.59;1685538;83;21153;-78
2022/04/25 07:17:36;;;;;;;7.90;5.03;;;;;;;20.28;47.43;99672.38;1664893;84;21608;-76
2022/04/25 07:20:08;;;;;;;6.43;4.40;;;;;;;20.32;47.45;99670.55;1662320;84;21205;-76
2022/04/25 07:30:59;;;;;;;7.40;4.33;;;;;;;20.67;47.52;99664.59;1685392;83;21507;-77
2022/04/25 07:33:27;;;;;;;6.60;4.20;;;;;;;20.88;47.42;99652.14;1669663;84;21083;-76
2022/04/25 07:35:56;;;;;;;6.10;3.73;;;;;;;21.09;47.13;99655.97;1669298;86;21054;-78
2022/04/25 07:38:24;;;;;;;4.30;3.53;;;;;;;21.30;46.59;99659.23;1668578;86;21128;-78
2022/04/25 07:40:55;;;;;;;5.27;3.50;;;;;;;21.49;46.32;99657.77;1683859;83;21115;-78
2022/04/25 07:43:22;;;;;;;6.13;3.77;;;;;;;21.67;46.04;99652.74;1659249;84;21154;-78
2022/04/25 07:45:49;;;;;;;6.23;3.60;;;;;;;21.82;45.47;99650.57;1685293;83;21075;-79
2022/04/25 07:48:18;;;;;;;7.30;3.50;;;;;;;21.95;44.92;99645.80;1683855;83;21066;-79
2022/04/25 07:50:47;;;;;;;6.40;3.53;;;;;;;22.06;44.47;99645.45;1679663;83;21284;-79
2022/04/25 07:53:17;;;;;;;5.77;3.30;;;;;;;22.13;43.83;99642.09;1686637;83;21696;-79
2022/04/25 07:55:47;;;;;;;7.17;3.37;;;;;;;22.15;43.53;99634.38;1696362;83;21657;-79
2022/04/25 07:58:18;;;;;;;6.17;3.07;;;;;;;22.15;43.21;99634.38;1696085;83;20996;-78
2022/04/25 08:00:46;;;;;;;5.47;3.10;;;;;;;22.18;43.09;99633.70;1691479;83;21147;-78
2022/04/25 08:03:18;;;;;;;6.53;3.00;;;;;;;22.28;43.60;99632.31;1693282;83;21493;-78
2022/04/25 08:05:47;;;;;;;4.97;3.23;;;;;;;22.46;43.23;99622.58;1701487;83;21631;-79
2022/04/25 08:08:15;;;;;;;4.77;3.10;;;;;;;22.66;42.65;99625.48;1687151;83;21048;-79
2022/04/25 08:10:43;;;;;;;4.70;2.63;;;;;;;22.85;42.39;99617.86;1685355;83;21018;-78
2022/04/25 08:18:49;;;;;;;5.67;2.40;;;;;;;23.29;40.69;99605.75;1675039;83;21114;-76
2022/04/25 08:21:18;;;;;;;6.60;2.17;;;;;;;23.35;40.33;99609.16;1686049;83;21007;-80
2022/04/25 08:23:45;;;;;;;3.73;2.40;;;;;;;23.40;39.10;99605.36;1657857;84;21241;-79
2022/04/25 08:26:13;;;;;;;4.50;2.60;;;;;;;23.39;39.13;99609.22;1657840;84;21101;-79
2022/04/25 08:28:41;;;;;;;4.30;2.60;;;;;;;23.41;38.88;99610.43;1685416;83;21188;-78
2022/04/25 08:31:12;;;;;;;5.77;2.90;;;;;;;23.47;39.15;99607.41;1689768;83;21242;-77
2022/04/25 08:33:42;;;;;;;4.05;2.60;;;;;;;23.55;38.99;99596.22;1679859;83;21082;-78
2022/04/25 08:36:09;;;;;;;6.63;2.73;;;;;;;23.61;39.13;99603.52;1696454;83;21001;-78
2022/04/25 08:38:36;;;;;;;6.10;2.70;;;;;;;23.65;38.74;99594.80;1699314;84;21015;-79
2022/04/25 08:41:06;;;;;;;6.50;2.93;;;;;;;23.70;39.09;99596.47;1709985;83;21142;-76
2022/04/25 08:43:34;;;;;;;7.43;2.77;;;;;;;23.79;39.21;99595.59;1691102;83;21055;-78
2022/04/25 08:46:05;;;;;;;5.87;2.80;;;;;;;23.92;38.90;99588.76;1663967;84;21507;-80
2022/04/25 08:48:34;;;;;;;7.60;2.87;;;;;;;24.08;38.66;99587.98;1665694;84;20980;-79
2022/04/25 08:51:01;;;;;;;4.43;2.60;;;;;;;24.26;38.21;99592.89;1663303;85;21048;-75
2022/04/25 08:53:29;;;;;;;5.60;2.87;;;;;;;24.44;38.18;99587.64;1667253;84;21896;-77
2022/04/25 08:55:56;;;;;;;5.80;2.67;;;;;;;24.60;37.43;99584.69;1635521;85;21029;-79
2022/04/25 08:58:25;;;;;;;4.63;2.67;;;;;;;24.65;36.97;99585.14;1660236;84;21668;-77
2022/04/25 09:00:52;;;;;;;7.50;2.90;;;;;;;24.62;36.78;99583.75;1689442;83;21055;-78
2022/04/25 09:03:21;;;;;;;5.23;2.97;;;;;;;24.53;36.63;99578.58;1663324;83;38499;-77
2022/04/25 09:05:50;;;;;;;4.60;2.70;;;;;;;24.43;37.00;99571.84;1616287;86;21799;-77
2022/04/25 09:08:17;;;;;;;5.03;2.37;;;;;;;24.41;37.14;99582.34;1679336;83;21182;-76
2022/04/25 09:10:46;;;;;;;4.33;2.90;;;;;;;24.44;37.26;99575.36;1661472;83;21074;-78
2022/04/25 09:13:14;;;;;;;4.57;2.60;;;;;;;24.51;37.15;99576.23;1654226;84;21064;-76
2022/04/25 09:15:42;;;;;;;4.70;2.80;;;;;;;24.64;37.10;99570.48;1695761;84;21065;-76
2022/04/25 09:18:10;;;;;;;4.20;2.90;;;;;;;24.73;36.65;99580.52;1696401;83;21585;-76
2022/04/25 09:20:37;;;;;;;4.80;2.50;;;;;;;24.79;36.48;99578.44;1696802;84;21015;-75
2022/04/25 09:23:23;;;;;;;4.27;2.40;;;;;;;24.78;36.13;99579.61;1667642;84;21081;-79
2022/04/25 09:26:24;;;;;;;4.93;2.50;;;;;;;24.68;35.63;99578.93;1675520;83;20999;-79
2022/04/25 09:28:52;;;;;;;4.53;2.17;;;;;;;24.57;35.80;99578.80;1685467;84;20979;-80
2022/04/25 09:31:24;;;;;;;3.40;2.50;;;;;;;24.58;36.02;99587.80;1697227;83;21214;-78
2022/04/25 09:33:52;;;;;;;4.87;2.35;;;;;;;24.62;35.68;99591.34;1691213;83;21082;-79
2022/04/25 09:36:20;;;;;;;4.63;2.43;;;;;;;24.64;35.64;99589.59;1683137;83;21074;-75
2022/04/25 09:38:47;;;;;;;5.33;2.60;;;;;;;24.61;35.20;99595.22;1686754;83;21058;-79
2022/04/25 09:41:16;;;;;;;4.57;2.40;;;;;;;24.52;35.79;99592.03;1683438;83;21110;-77
2022/04/25 09:43:47;;;;;;;5.03;2.50;;;;;;;24.54;35.98;99595.94;1686571;83;27485;-75
2022/04/25 09:46:17;;;;;;;4.87;2.60;;;;;;;24.51;35.69;99587.16;1694116;83;21068;-77
2022/04/25 09:49:03;;;;;;;3.93;2.63;;;;;;;24.38;36.33;99601.38;1681403;83;21071;-78
2022/04/25 09:51:32;;;;;;;5.60;2.87;;;;;;;24.31;36.67;99588.45;1655842;84;21607;-77
2022/04/25 09:54:01;;;;;;;4.80;2.83;;;;;;;24.13;36.62;99603.84;1685728;83;21038;-76
2022/04/25 09:56:31;;;;;;;3.67;2.33;;;;;;;23.87;37.25;99589.87;1668231;86;21817;-80
2022/04/25 09:59:06;;;;;;;6.27;3.07;;;;;;;23.79;37.50;99581.41;1673256;83;21047;-79
2022/04/25 10:01:37;;;;;;;4.43;2.90;;;;;;;23.77;37.74;99591.11;1651751;84;21080;-77
2022/04/25 10:04:06;;;;;;;3.33;2.40;;;;;;;23.81;37.93;99593.30;1695347;82;21050;-77
2022/04/25 10:06:34;;;;;;;5.87;2.80;;;;;;;23.83;38.08;99599.18;1721960;83;20965;-76
2022/04/25 10:09:05;;;;;;;3.53;2.43;;;;;;;23.74;38.27;99601.39;1706076;83;21224;-77
2022/04/25 10:11:35;;;;;;;3.70;2.63;;;;;;;23.72;38.56;99598.23;1699110;83;20978;-75
2022/04/25 10:14:02;;;;;;;4.20;2.60;;;;;;;23.72;38.10;99594.14;1690716;82;21032;-77
2022/04/25 10:16:34;;;;;;;6.80;3.00;;;;;;;23.60;38.20;99597.86;1665912;84;21037;-75
2022/04/25 10:19:03;;;;;;;6.43;3.30;;;;;;;23.44;38.38;99598.59;1665255;84;21082;-75
2022/04/25 10:21:31;;;;;;;5.00;2.97;;;;;;;23.26;38.93;99595.00;1684425;82;21220;-75
2022/04/25 10:23:58;;;;;;;5.03;2.90;;;;;;;23.18;39.19;99603.66;1686091;83;21103;-74
2022/04/25 10:26:27;;;;;;;3.27;2.30;;;;;;;23.12;39.29;99598.30;1686488;83;21130;-76
2022/04/25 10:29:01;;;;;;;4.63;2.83;;;;;;;23.06;39.45;99605.20;1686242;82;21098;-77
2022/04/25 10:31:44;;;;;;;4.70;3.00;;;;;;;22.94;39.79;99607.55;1686687;82;21063;-75
2022/04/25 10:34:14;;;;;;;5.50;2.90;;;;;;;22.83;40.04;99611.19;1685549;83;21024;-78
2022/04/25 10:36:45;;;;;;;4.93;2.57;;;;;;;22.75;40.12;99619.81;1657699;84;20984;-76
2022/04/25 10:39:24;;;;;;;3.83;2.60;;;;;;;22.68;40.23;99613.67;1662103;84;21078;-75
2022/04/25 10:44:53;;;;;;;4.57;2.70;;;;;;;22.58;40.47;99611.55;1677639;83;21774;-76
2022/04/25 10:47:24;;;;;;;4.43;2.43;;;;;;;22.47;40.45;99618.15;1675667;85;22240;-75
2022/04/25 10:49:58;;;;;;;4.12;2.60;;;;;;;22.38;40.67;99616.80;1675304;85;26531;-78
2022/04/25 10:55:34;;;;;;;3.40;2.60;;;;;;;22.25;40.97;99606.63;1686061;83;21079;-74
2022/04/25 10:58:11;;;;;;;3.65;2.50;;;;;;;22.21;41.17;99616.09;1665388;84;22014;-76
2022/04/25 11:00:45;;;;;;;5.37;2.80;;;;;;;22.26;41.21;99608.78;1681503;83;21114;-75
2022/04/25 11:03:25;;;;;;;4.73;2.43;;;;;;;22.37;41.05;99611.13;1656240;84;21104;-76
2022/04/25 11:05:57;;;;;;;4.60;2.60;;;;;;;22.45;40.93;99610.91;1676554;83;21494;-75
2022/04/25 11:08:33;;;;;;;3.47;2.30;;;;;;;22.58;40.76;99612.91;1670992;85;21463;-77
2022/04/25 11:11:14;;;;;;;3.40;2.40;;;;;;;22.69;40.56;99606.28;1687433;84;21334;-77
2022/04/25 11:14:01;;;;;;;3.30;2.40;;;;;;;22.76;40.13;99609.70;1674765;85;21031;-76
2022/04/25 11:16:26;;;;;;;4.63;2.40;;;;;;;22.82;40.31;99608.27;1687830;83;21046;-75
2022/04/25 11:19:21;;;;;;;6.43;2.70;;;;;;;22.94;40.08;99610.84;1668335;84;21080;-77
2022/04/25 11:21:55;;;;;;;5.00;2.83;;;;;;;22.99;39.57;99611.11;1667463;86;21072;-79
2022/04/25 11:24:33;;;;;;;4.00;2.73;;;;;;;23.12;39.41;99611.92;1667575;86;21549;-76
2022/04/25 11:27:03;;;;;;;7.80;3.00;;;;;;;23.34;39.06;99611.69;1694607;84;21466;-74
2022/04/25 11:29:32;;;;;;;6.40;2.40;;;;;;;23.63;38.11;99612.13;1685075;83;21517;-76
2022/04/25 11:32:26;;;;;;;5.10;2.50;;;;;;;23.86;37.67;99606.05;1696215;84;21543;-76
2022/04/25 11:35:00;;;;;;;5.40;2.23;;;;;;;24.06;36.41;99603.95;1696695;84;21072;-77
2022/04/25 11:37:29;;;;;;;6.67;2.70;;;;;;;24.20;36.49;99608.02;1697197;84;20954;-76
2022/04/25 11:40:00;;;;;;;6.30;2.77;;;;;;;24.23;36.12;99605.33;1696350;84;21048;-75
2022/04/25 11:42:29;;;;;;;4.93;2.57;;;;;;;24.22;36.52;99602.95;1696413;84;20989;-77
2022/04/25 11:44:57;;;;;;;6.53;2.30;;;;;;;24.22;36.25;99609.77;1695820;84;21508;-76
2022/04/25 11:47:26;;;;;;;6.63;2.93;;;;;;;24.23;36.10;99604.55;1716565;83;21311;-77
2022/04/25 11:50:03;;;;;;;5.47;2.90;;;;;;;24.23;35.54;99597.72;1670824;83;21038;-77
2022/04/25 11:52:31;;;;;;;5.97;2.53;;;;;;;24.16;35.94;99605.25;1670628;85;21376;-76
2022/04/25 11:54:59;;;;;;;6.10;2.67;;;;;;;24.03;35.81;99599.24;1652652;86;21115;-81
2022/04/25 11:57:28;;;;;;;6.80;2.43;;;;;;;23.84;35.78;99605.62;1693365;84;21494;-76
2022/04/25 12:00:15;;;;;;;5.97;2.73;;;;;;;23.67;36.07;99608.86;1689876;83;21113;-76
2022/04/25 12:02:44;;;;;;;6.87;2.77;;;;;;;23.58;36.03;99602.88;1691351;83;20985;-77
2022/04/25 12:05:12;;;;;;;5.93;2.93;;;;;;;23.50;36.67;99607.45;1699596;84;21211;-78
2022/04/25 12:16:00;;;;;;;7.07;3.40;;;;;;;22.61;39.28;99609.46;1673266;84;21008;-77
2022/04/25 12:18:30;;;;;;;6.97;3.40;;;;;;;22.58;39.71;99608.82;1671597;85;21128;-79
2022/04/25 12:21:11;;;;;;;6.87;3.30;;;;;;;22.62;39.67;99604.22;1685763;83;21046;-77
2022/04/25 12:23:47;;;;;;;7.90;3.63;;;;;;;22.66;39.71;99605.06;1666654;84;21058;-75
2022/04/25 12:26:29;;;;;;;8.27;3.70;;;;;;;22.70;39.73;99596.96;1695819;84;21090;-76
2022/04/25 12:29:00;;;;;;;7.67;4.00;;;;;;;22.68;39.71;99612.31;1662576;83;21071;-75
2022/04/25 12:31:30;;;;;;;7.62;3.67;;;;;;;22.69;39.72;99601.62;1676570;83;21086;-76